createdAt,value
2022-10-11T00:02:05.727Z,0.63
2022-10-11T00:04:32.537Z,0.45
2022-10-11T00:06:59.261Z,0.50
2022-10-11T00:09:26.032Z,0.50
2022-10-11T00:11:56.163Z,0.77
2022-10-11T00:14:24.503Z,0.80
2022-10-11T00:16:51.415Z,1.42
2022-10-11T00:19:18.267Z,1.38
2022-10-11T00:21:45.979Z,2.92
2022-10-11T00:24:13.664Z,2.38
2022-10-11T00:26:44.400Z,3.83
2022-10-11T00:29:13.262Z,4.22
2022-10-11T00:31:40.474Z,6.28
2022-10-11T00:34:08.411Z,3.92
2022-10-11T00:36:35.196Z,3.90
2022-10-11T00:39:02.046Z,5.03
2022-10-11T00:41:28.807Z,4.43
2022-10-11T00:44:28.681Z,7.10
2022-10-11T00:46:59.449Z,8.70
2022-10-11T00:49:29.374Z,8.48
2022-10-11T00:52:01.949Z,8.25
2022-10-11T00:54:33.998Z,7.28
2022-10-11T00:57:05.521Z,6.07
2022-10-11T00:59:37.790Z,7.93
2022-10-11T01:02:05.481Z,5.57
2022-10-11T01:04:32.966Z,5.53
2022-10-11T01:07:01.295Z,4.82
2022-10-11T01:09:28.384Z,4.47
2022-10-11T01:11:59.161Z,3.28
2022-10-11T01:14:39.373Z,4.65
2022-10-11T01:17:26.355Z,4.45
2022-10-11T01:20:17.198Z,4.13
2022-10-11T01:22:59.820Z,3.30
2022-10-11T01:25:45.373Z,3.10
2022-10-11T01:28:25.286Z,2.22
2022-10-11T01:30:54.573Z,2.13
2022-10-11T01:33:36.209Z,2.70
2022-10-11T01:36:12.358Z,1.40
2022-10-11T01:38:52.750Z,1.50
2022-10-11T01:41:24.478Z,1.25
2022-10-11T01:43:55.542Z,1.88
2022-10-11T01:46:24.003Z,1.55
2022-10-11T01:48:53.555Z,1.60
2022-10-11T01:51:23.380Z,1.25
2022-10-11T01:53:56.208Z,2.45
2022-10-11T01:56:47.663Z,1.60
2022-10-11T01:59:20.448Z,1.33
2022-10-11T02:01:59.041Z,1.30
2022-10-11T02:04:53.386Z,0.73
2022-10-11T02:07:25.360Z,0.70
2022-10-11T02:10:08.038Z,1.70
2022-10-11T02:12:48.706Z,0.52
2022-10-11T02:15:17.180Z,1.15
2022-10-11T02:17:49.389Z,0.73
2022-10-11T02:20:23.962Z,0.57
2022-10-11T02:22:56.703Z,0.88
2022-10-11T02:25:26.852Z,0.90
2022-10-11T02:27:56.821Z,1.02
2022-10-11T02:30:23.873Z,1.75
2022-10-11T02:32:52.271Z,0.60
2022-10-11T02:35:20.771Z,0.82
2022-10-11T02:37:57.239Z,1.10
2022-10-11T02:40:26.204Z,1.27
2022-10-11T02:42:59.660Z,0.47
2022-10-11T02:45:34.760Z,0.45
2022-10-11T02:48:02.501Z,0.45
2022-10-11T02:50:29.293Z,0.40
2022-10-11T02:52:56.084Z,1.15
2022-10-11T02:55:22.886Z,0.57
2022-10-11T02:57:49.713Z,0.50
2022-10-11T03:00:16.550Z,0.43
2022-10-11T03:02:43.329Z,0.90
2022-10-11T03:05:10.178Z,1.10
2022-10-11T03:07:36.960Z,0.65
2022-10-11T03:10:05.534Z,0.70
2022-10-11T03:12:32.558Z,1.27
2022-10-11T03:14:59.389Z,0.85
2022-10-11T03:17:42.823Z,0.50
2022-10-11T03:20:10.031Z,1.83
2022-10-11T03:22:37.145Z,0.95
2022-10-11T03:25:04.903Z,0.40
2022-10-11T03:27:33.274Z,0.70
2022-10-11T03:30:00.881Z,1.30
2022-10-11T03:32:28.059Z,1.20
2022-10-11T03:34:54.875Z,0.50
2022-10-11T03:37:21.785Z,2.25
2022-10-11T03:39:48.824Z,1.65
2022-10-11T03:42:15.665Z,1.42
2022-10-11T03:44:42.414Z,0.70
2022-10-11T03:47:09.452Z,0.93
2022-10-11T03:49:41.221Z,2.72
2022-10-11T03:52:10.473Z,1.42
2022-10-11T03:54:37.260Z,1.42
2022-10-11T03:57:10.589Z,0.95
2022-10-11T03:59:37.468Z,1.05
2022-10-11T04:02:04.695Z,0.70
2022-10-11T04:04:31.754Z,3.40
2022-10-11T04:06:58.684Z,0.50
2022-10-11T04:09:25.406Z,1.35
2022-10-11T04:11:52.185Z,0.85
2022-10-11T04:14:18.955Z,0.45
2022-10-11T04:16:45.712Z,0.95
2022-10-11T04:19:12.503Z,0.38
2022-10-11T04:21:39.236Z,0.40
2022-10-11T04:24:06.186Z,0.60
2022-10-11T04:26:33.209Z,0.60
2022-10-11T04:29:00.015Z,0.95
2022-10-11T04:31:26.906Z,1.45
2022-10-11T04:33:53.757Z,1.73
2022-10-11T04:36:20.520Z,0.93
2022-10-11T04:38:47.341Z,1.08
2022-10-11T04:41:15.114Z,0.73
2022-10-11T04:43:42.617Z,0.95
2022-10-11T04:46:10.323Z,2.35
2022-10-11T04:48:37.598Z,0.55
2022-10-11T04:51:04.511Z,1.42
2022-10-11T04:53:31.392Z,1.48
2022-10-11T04:56:05.065Z,1.00
2022-10-11T04:58:34.553Z,1.55
2022-10-11T05:01:01.830Z,0.40
2022-10-11T05:03:28.867Z,1.00
2022-10-11T05:05:56.031Z,0.50
2022-10-11T05:08:23.477Z,1.23
2022-10-11T05:11:06.213Z,0.57
2022-10-11T05:13:34.162Z,0.38
2022-10-11T05:16:01.987Z,1.60
2022-10-11T05:18:30.220Z,0.60
2022-10-11T05:21:06.666Z,0.95
2022-10-11T05:23:34.719Z,0.85
2022-10-11T05:26:02.739Z,0.43
2022-10-11T05:28:29.804Z,1.10
2022-10-11T05:30:56.763Z,0.40
2022-10-11T05:33:23.878Z,0.40
2022-10-11T05:35:50.736Z,0.60
2022-10-11T05:38:17.627Z,0.77
2022-10-11T05:40:44.483Z,0.70
2022-10-11T05:43:11.633Z,0.80
2022-10-11T05:45:40.193Z,1.35
2022-10-11T05:48:07.922Z,0.40
2022-10-11T05:50:35.642Z,0.60
2022-10-11T05:53:03.206Z,0.75
2022-10-11T05:55:30.002Z,0.38
2022-10-11T05:57:57.766Z,0.77
2022-10-11T06:00:24.969Z,0.65
2022-10-11T06:02:51.867Z,0.35
2022-10-11T06:05:18.797Z,0.82
2022-10-11T06:07:45.714Z,0.85
2022-10-11T06:10:12.806Z,0.40
2022-10-11T06:12:39.748Z,3.58
2022-10-11T06:15:07.610Z,0.80
2022-10-11T06:17:34.689Z,0.50
2022-10-11T06:20:01.587Z,0.90
2022-10-11T06:22:28.521Z,0.40
2022-10-11T06:24:55.396Z,0.55
2022-10-11T06:27:22.364Z,0.40
2022-10-11T06:29:49.332Z,1.65
2022-10-11T06:32:16.547Z,0.30
2022-10-11T06:34:43.333Z,0.52
2022-10-11T06:37:10.413Z,1.23
2022-10-11T06:39:37.162Z,1.17
2022-10-11T06:42:04.341Z,0.77
2022-10-11T06:44:31.167Z,0.60
2022-10-11T06:46:57.968Z,1.13
2022-10-11T06:49:24.837Z,1.25
2022-10-11T06:51:51.878Z,0.55
2022-10-11T06:54:18.687Z,0.30
2022-10-11T06:56:45.831Z,0.40
2022-10-11T06:59:13.506Z,0.43
2022-10-11T07:01:40.731Z,0.52
2022-10-11T07:04:08.231Z,0.65
2022-10-11T07:06:38.361Z,0.40
2022-10-11T07:09:05.645Z,0.40
2022-10-11T07:11:32.810Z,0.43
2022-10-11T07:14:07.501Z,0.90
2022-10-11T07:16:36.162Z,2.13
2022-10-11T07:19:05.383Z,1.38
2022-10-11T07:21:34.371Z,1.45
2022-10-11T07:24:01.962Z,1.13
2022-10-11T07:26:33.766Z,1.77
2022-10-11T07:29:05.390Z,1.40
2022-10-11T07:31:32.287Z,1.23
2022-10-11T07:33:59.229Z,0.85
2022-10-11T07:36:26.260Z,0.85
2022-10-11T07:38:53.123Z,1.02
2022-10-11T07:41:20.188Z,0.57
2022-10-11T07:43:48.086Z,0.35
2022-10-11T07:46:15.453Z,0.68
2022-10-11T07:48:42.257Z,0.50
2022-10-11T07:51:11.722Z,0.40
2022-10-11T07:53:43.811Z,1.92
2022-10-11T07:56:13.010Z,0.45
2022-10-11T07:58:41.033Z,1.27
2022-10-11T08:01:08.693Z,0.60
2022-10-11T08:03:35.651Z,1.42
2022-10-11T08:06:05.525Z,3.38
2022-10-11T08:08:32.890Z,0.98
2022-10-11T08:11:00.282Z,0.40
2022-10-11T08:13:27.309Z,2.70
2022-10-11T08:15:54.760Z,2.53
2022-10-11T08:18:21.612Z,0.50
2022-10-11T08:20:49.023Z,1.52
2022-10-11T08:23:17.404Z,3.08
2022-10-11T08:25:46.231Z,2.08
2022-10-11T08:28:17.900Z,1.67
2022-10-11T08:30:52.701Z,1.23
2022-10-11T08:33:22.326Z,2.72
2022-10-11T08:35:50.479Z,1.88
2022-10-11T08:38:18.054Z,2.03
2022-10-11T08:40:52.102Z,1.38
2022-10-11T08:43:26.457Z,1.05
2022-10-11T08:45:56.119Z,1.30
2022-10-11T08:48:40.524Z,1.88
2022-10-11T08:51:43.288Z,1.00
2022-10-11T08:54:27.086Z,0.40
2022-10-11T08:56:53.843Z,1.65
2022-10-11T08:59:35.885Z,1.60
2022-10-11T09:02:23.279Z,2.50
2022-10-11T09:04:52.814Z,3.45
2022-10-11T09:07:40.720Z,3.50
2022-10-11T09:10:10.513Z,3.05
2022-10-11T09:13:14.466Z,2.08
2022-10-11T09:15:57.408Z,4.72
2022-10-11T09:18:42.776Z,4.60
2022-10-11T09:21:28.375Z,3.65
2022-10-11T09:24:13.565Z,3.13
2022-10-11T09:27:19.287Z,4.32
2022-10-11T09:30:11.514Z,3.22
2022-10-11T09:32:45.745Z,2.75
2022-10-11T09:35:21.504Z,1.10
2022-10-11T09:38:38.781Z,1.20
2022-10-11T09:41:31.090Z,2.45
2022-10-11T09:43:57.841Z,2.45
2022-10-11T09:46:36.887Z,1.27
2022-10-11T09:49:09.781Z,6.88
2022-10-11T09:51:37.808Z,2.80
2022-10-11T09:54:06.482Z,2.67
2022-10-11T09:56:40.416Z,1.73
2022-10-11T09:59:07.102Z,3.80
2022-10-11T10:01:34.264Z,0.90
2022-10-11T10:04:07.640Z,2.10
2022-10-11T10:06:35.137Z,1.00
2022-10-11T10:09:26.655Z,2.63
2022-10-11T10:11:55.545Z,1.98
2022-10-11T10:14:30.345Z,0.93
2022-10-11T10:17:04.060Z,3.85
2022-10-11T10:19:44.478Z,1.23
2022-10-11T10:22:20.494Z,1.73
2022-10-11T10:24:49.116Z,0.63
2022-10-11T10:27:24.451Z,1.27
2022-10-11T10:30:08.126Z,2.28
2022-10-11T10:32:48.463Z,2.50
2022-10-11T10:35:39.957Z,1.88
2022-10-11T10:38:08.957Z,2.28
2022-10-11T10:40:52.170Z,2.17
2022-10-11T10:43:28.927Z,1.25
2022-10-11T10:46:04.962Z,2.30
2022-10-11T10:49:12.093Z,3.15
2022-10-11T10:51:46.475Z,2.42
2022-10-11T10:54:22.252Z,2.63
2022-10-11T10:56:53.274Z,2.25
2022-10-11T10:59:37.852Z,1.33
2022-10-11T11:02:38.606Z,2.95
2022-10-11T11:07:47.058Z,2.58
2022-10-11T11:10:19.438Z,2.10
2022-10-11T11:12:59.365Z,2.50
2022-10-11T11:15:37.928Z,1.33
2022-10-11T11:18:50.049Z,2.35
2022-10-11T11:21:41.658Z,4.88
2022-10-11T11:24:17.941Z,2.70
2022-10-11T11:27:06.796Z,3.28
2022-10-11T11:29:58.376Z,2.83
2022-10-11T11:32:33.393Z,2.58
2022-10-11T11:35:11.897Z,1.55
2022-10-11T11:37:42.669Z,1.75
2022-10-11T11:40:43.453Z,3.35
2022-10-11T11:43:22.343Z,2.45
2022-10-11T11:45:55.236Z,1.60
2022-10-11T11:48:27.233Z,2.17
2022-10-11T11:51:17.704Z,2.15
2022-10-11T11:54:03.464Z,1.75
2022-10-11T11:56:39.027Z,2.58
2022-10-11T11:59:35.013Z,1.55
2022-10-11T12:02:37.429Z,3.85
2022-10-11T12:05:07.419Z,1.42
2022-10-11T12:07:52.850Z,2.63
2022-10-11T12:10:51.729Z,3.70
2022-10-11T12:13:28.456Z,4.75
2022-10-11T12:16:12.497Z,2.42
2022-10-11T12:19:00.760Z,1.20
2022-10-11T12:21:33.654Z,0.65
2022-10-11T12:24:19.893Z,1.02
2022-10-11T12:27:10.696Z,5.10
2022-10-11T12:29:58.324Z,1.75
2022-10-11T12:32:28.069Z,2.17
2022-10-11T12:35:32.306Z,0.82
2022-10-11T12:38:35.192Z,3.15
2022-10-11T12:41:10.835Z,4.18
2022-10-11T12:43:49.589Z,2.72
2022-10-11T12:46:28.271Z,1.48
2022-10-11T12:49:16.658Z,1.92
2022-10-11T12:52:22.000Z,0.50
2022-10-11T12:55:12.205Z,1.88
2022-10-11T12:58:01.623Z,3.83
2022-10-11T13:00:40.902Z,1.90
2022-10-11T13:03:32.797Z,1.52
2022-10-11T13:06:09.993Z,1.45
2022-10-11T13:08:40.746Z,2.20
2022-10-11T13:11:17.387Z,2.20
2022-10-11T13:14:12.063Z,2.67
2022-10-11T13:16:48.835Z,2.38
2022-10-11T13:19:16.467Z,3.15
2022-10-11T13:21:43.791Z,4.15
2022-10-11T13:24:15.532Z,2.47
2022-10-11T13:26:47.966Z,1.35
2022-10-11T13:29:27.660Z,1.33
2022-10-11T13:31:54.504Z,1.23
2022-10-11T13:34:23.458Z,0.60
2022-10-11T13:36:58.427Z,1.15
2022-10-11T13:39:31.235Z,2.47
2022-10-11T13:41:59.525Z,2.58
2022-10-11T13:44:27.123Z,2.67
2022-10-11T13:46:54.614Z,0.82
2022-10-11T13:49:26.151Z,1.30
2022-10-11T13:52:01.548Z,1.15
2022-10-11T13:54:53.416Z,4.03
2022-10-11T13:57:23.757Z,1.67
2022-10-11T13:59:50.704Z,1.40
2022-10-11T14:02:23.761Z,3.67
2022-10-11T14:04:50.826Z,1.10
2022-10-11T14:07:28.062Z,1.55
2022-10-11T14:09:55.854Z,0.90
2022-10-11T14:12:43.158Z,1.20
2022-10-11T14:15:31.316Z,1.42
2022-10-11T14:17:59.239Z,1.52
2022-10-11T14:20:36.411Z,0.88
2022-10-11T14:23:03.221Z,1.80
2022-10-11T14:25:30.351Z,1.20
2022-10-11T14:27:57.590Z,1.90
2022-10-11T14:30:27.290Z,2.67
2022-10-11T14:32:57.159Z,1.95
2022-10-11T14:35:26.871Z,1.88
2022-10-11T14:37:53.772Z,1.20
2022-10-11T14:40:23.587Z,2.55
2022-10-11T14:42:50.737Z,1.23
2022-10-11T14:45:18.212Z,2.40
2022-10-11T14:47:45.416Z,1.33
2022-10-11T14:50:26.950Z,1.65
2022-10-11T14:52:54.761Z,0.85
2022-10-11T14:55:26.179Z,0.60
2022-10-11T14:57:53.138Z,0.70
2022-10-11T15:00:26.120Z,0.80
2022-10-11T15:02:53.858Z,1.13
2022-10-11T15:05:23.047Z,0.95
2022-10-11T15:07:50.710Z,2.85
2022-10-11T15:10:34.617Z,1.05
2022-10-11T15:13:02.158Z,0.70
2022-10-11T15:15:30.759Z,0.73
2022-10-11T15:17:59.386Z,1.77
2022-10-11T15:20:36.751Z,1.85
2022-10-11T15:23:04.025Z,0.63
2022-10-11T15:25:31.075Z,0.77
2022-10-11T15:27:58.335Z,0.65
2022-10-11T15:30:28.692Z,0.95
2022-10-11T15:32:55.952Z,0.30
2022-10-11T15:35:23.949Z,0.55
2022-10-11T15:37:56.541Z,0.30
2022-10-11T15:40:26.764Z,0.65
2022-10-11T15:42:54.802Z,0.20
2022-10-11T15:45:22.717Z,0.28
2022-10-11T15:47:50.391Z,0.25
2022-10-11T15:50:36.820Z,0.50
2022-10-11T15:53:13.992Z,0.30
2022-10-11T15:55:44.130Z,0.25
2022-10-11T15:58:16.418Z,0.15
2022-10-11T16:00:45.353Z,0.22
2022-10-11T16:03:13.933Z,0.20
2022-10-11T16:05:41.222Z,0.30
2022-10-11T16:08:09.289Z,0.20
2022-10-11T16:10:36.865Z,0.10
2022-10-11T16:13:03.728Z,0.20
2022-10-11T16:15:30.520Z,0.20
2022-10-11T16:17:57.419Z,0.85
2022-10-11T16:20:25.713Z,0.20
2022-10-11T16:22:54.106Z,0.45
2022-10-11T16:25:22.393Z,0.30
2022-10-11T16:27:49.674Z,0.25
2022-10-11T16:30:18.723Z,0.57
2022-10-11T16:32:45.658Z,0.60
2022-10-11T16:35:14.260Z,0.10
2022-10-11T16:37:41.316Z,0.20
2022-10-11T16:40:10.243Z,0.20
2022-10-11T16:42:39.480Z,0.30
2022-10-11T16:45:07.215Z,0.28
2022-10-11T16:47:34.655Z,0.40
2022-10-11T16:50:02.191Z,0.20
2022-10-11T16:52:29.170Z,0.28
2022-10-11T16:54:56.523Z,0.20
2022-10-11T16:57:24.289Z,0.95
2022-10-11T16:59:51.734Z,0.25
2022-10-11T17:02:22.287Z,0.70
2022-10-11T17:04:51.533Z,0.28
2022-10-11T17:07:19.009Z,0.20
2022-10-11T17:09:46.570Z,0.30
2022-10-11T17:12:15.244Z,0.20
2022-10-11T17:14:42.650Z,0.30
2022-10-11T17:17:10.940Z,0.30
2022-10-11T17:19:45.100Z,0.20
2022-10-11T17:22:15.589Z,0.28
2022-10-11T17:24:44.111Z,0.43
2022-10-11T17:27:11.563Z,0.30
2022-10-11T17:29:38.431Z,0.65
2022-10-11T17:32:05.753Z,0.30
2022-10-11T17:34:33.009Z,0.32
2022-10-11T17:36:59.775Z,0.38
2022-10-11T17:39:26.556Z,0.70
2022-10-11T17:41:53.389Z,0.20
2022-10-11T17:44:21.638Z,0.38
2022-10-11T17:46:48.517Z,0.30
2022-10-11T17:49:15.661Z,0.40
2022-10-11T17:51:42.851Z,0.50
2022-10-11T17:54:12.998Z,0.17
2022-10-11T17:56:41.689Z,0.32
2022-10-11T17:59:18.495Z,0.65
2022-10-11T18:01:45.295Z,0.30
2022-10-11T18:04:16.613Z,0.80
2022-10-11T18:06:45.284Z,0.38
2022-10-11T18:09:13.966Z,0.30
2022-10-11T18:11:40.912Z,0.47
2022-10-11T18:14:08.588Z,0.40
2022-10-11T18:16:36.942Z,0.30
2022-10-11T18:19:06.709Z,0.30
2022-10-11T18:21:35.014Z,0.90
2022-10-11T18:24:03.937Z,0.47
2022-10-11T18:26:31.285Z,0.40
2022-10-11T18:28:58.964Z,0.65
2022-10-11T18:31:31.586Z,0.88
2022-10-11T18:33:58.621Z,0.45
2022-10-11T18:36:28.474Z,0.75
2022-10-11T18:38:57.630Z,1.23
2022-10-11T18:41:30.725Z,0.55
2022-10-11T18:44:03.576Z,0.70
2022-10-11T18:46:31.162Z,0.80
2022-10-11T18:48:59.890Z,0.82
2022-10-11T18:51:29.819Z,0.40
2022-10-11T18:53:58.893Z,0.40
2022-10-11T18:56:27.658Z,0.40
2022-10-11T18:58:56.702Z,0.40
2022-10-11T19:01:29.841Z,0.35
2022-10-11T19:03:59.198Z,0.28
2022-10-11T19:06:32.011Z,0.30
2022-10-11T19:09:05.702Z,0.30
2022-10-11T19:11:32.833Z,0.40
2022-10-11T19:14:08.316Z,0.63
2022-10-11T19:16:40.481Z,0.50
2022-10-11T19:19:07.596Z,0.55
2022-10-11T19:21:34.536Z,0.28
2022-10-11T19:24:02.018Z,0.47
2022-10-11T19:26:33.535Z,1.20
2022-10-11T19:29:10.600Z,1.05
2022-10-11T19:31:45.077Z,1.42
2022-10-11T19:34:12.056Z,0.73
2022-10-11T19:36:39.455Z,0.60
2022-10-11T19:39:06.571Z,0.60
2022-10-11T19:41:33.551Z,0.85
2022-10-11T19:44:00.462Z,1.30
2022-10-11T19:49:17.658Z,0.43
2022-10-11T19:51:44.722Z,0.95
2022-10-11T19:54:13.696Z,0.98
2022-10-11T19:56:40.934Z,1.50
2022-10-11T19:59:08.160Z,1.00
2022-10-11T20:01:36.096Z,0.45
2022-10-11T20:04:08.246Z,1.05
2022-10-11T20:06:38.946Z,0.85
2022-10-11T20:09:28.565Z,0.95
2022-10-11T20:11:54.806Z,0.70
2022-10-11T20:14:22.257Z,0.98
2022-10-11T20:16:50.863Z,0.57
2022-10-11T20:19:18.521Z,1.05
2022-10-11T20:21:45.536Z,1.88
2022-10-11T20:24:12.772Z,0.95
2022-10-11T20:26:40.340Z,0.98
2022-10-11T20:29:07.720Z,0.98
2022-10-11T20:31:38.507Z,1.08
2022-10-11T20:34:07.364Z,0.50
2022-10-11T20:36:36.353Z,1.00
2022-10-11T20:39:04.866Z,1.80
2022-10-11T20:41:34.203Z,1.45
2022-10-11T20:44:02.551Z,1.08
2022-10-11T20:46:32.339Z,1.25
2022-10-11T20:49:02.414Z,1.38
2022-10-11T20:51:31.481Z,1.70
2022-10-11T20:53:58.760Z,0.95
2022-10-11T20:56:25.834Z,0.70
2022-10-11T20:58:54.114Z,1.20
2022-10-11T21:01:26.800Z,1.55
2022-10-11T21:03:54.227Z,0.95
2022-10-11T21:06:21.247Z,0.88
2022-10-11T21:08:48.091Z,1.00
2022-10-11T21:11:14.895Z,1.30
2022-10-11T21:13:41.869Z,1.90
2022-10-11T21:16:15.264Z,0.55
2022-10-11T21:18:42.552Z,1.45
2022-10-11T21:21:13.398Z,0.70
2022-10-11T21:23:40.932Z,0.82
2022-10-11T21:26:12.937Z,0.70
2022-10-11T21:28:40.719Z,0.63
2022-10-11T21:31:10.643Z,1.20
2022-10-11T21:33:38.322Z,2.70
2022-10-11T21:36:13.149Z,1.08
2022-10-11T21:38:40.390Z,1.90
2022-10-11T21:41:09.971Z,1.00
2022-10-11T21:43:38.379Z,1.27
2022-10-11T21:46:09.263Z,0.57
2022-10-11T21:48:36.055Z,0.82
2022-10-11T21:51:02.918Z,0.70
2022-10-11T21:53:30.021Z,0.77
2022-10-11T21:56:01.013Z,1.10
2022-10-11T21:58:28.482Z,1.10
2022-10-11T22:00:55.216Z,0.50
2022-10-11T22:03:22.237Z,0.70
2022-10-11T22:05:49.135Z,0.82
2022-10-11T22:08:16.466Z,1.40
2022-10-11T22:10:45.317Z,1.38
2022-10-11T22:13:12.346Z,0.85
2022-10-11T22:15:39.595Z,1.45
2022-10-11T22:18:06.712Z,1.30
2022-10-11T22:20:33.633Z,0.90
2022-10-11T22:23:00.559Z,0.55
2022-10-11T22:25:27.410Z,1.50
2022-10-11T22:27:54.379Z,0.50
2022-10-11T22:30:21.092Z,0.90
2022-10-11T22:32:47.988Z,0.75
2022-10-11T22:35:14.852Z,1.27
2022-10-11T22:37:41.932Z,1.77
2022-10-11T22:40:08.974Z,1.33
2022-10-11T22:42:36.096Z,0.85
2022-10-11T22:45:03.051Z,2.83
2022-10-11T22:47:29.752Z,2.58
2022-10-11T22:49:56.443Z,1.50
2022-10-11T22:52:23.304Z,2.85
2022-10-11T22:54:50.101Z,0.93
2022-10-11T22:57:16.889Z,1.10
2022-10-11T22:59:43.679Z,0.88
2022-10-11T23:02:10.490Z,2.45
2022-10-11T23:04:37.275Z,0.77
2022-10-11T23:07:05.257Z,0.43
2022-10-11T23:09:32.160Z,1.25
2022-10-11T23:11:59.665Z,1.08
2022-10-11T23:14:26.426Z,0.40
2022-10-11T23:16:53.182Z,1.25
2022-10-11T23:19:20.023Z,0.52
2022-10-11T23:21:47.118Z,0.73
2022-10-11T23:24:14.024Z,1.83
2022-10-11T23:26:40.777Z,0.40
2022-10-11T23:29:07.682Z,0.38
2022-10-11T23:31:34.479Z,0.40
2022-10-11T23:34:01.503Z,0.50
2022-10-11T23:36:28.310Z,0.30
2022-10-11T23:38:57.385Z,0.50
2022-10-11T23:41:26.617Z,0.40
2022-10-11T23:43:53.808Z,0.75
2022-10-11T23:46:20.727Z,0.57
2022-10-11T23:48:48.033Z,0.32
2022-10-11T23:51:15.165Z,1.33
2022-10-11T23:53:41.971Z,0.52
2022-10-11T23:56:10.678Z,0.30
2022-10-11T23:58:37.721Z,0.30
